createdAt,value
2022-11-08T00:00:05.415Z,12.7
2022-11-08T00:05:05.175Z,12.7
2022-11-08T00:10:05.120Z,12.7
2022-11-08T00:15:04.459Z,12.7
2022-11-08T00:20:03.565Z,12.7
2022-11-08T00:25:02.657Z,12.7
2022-11-08T00:30:04.024Z,12.7
2022-11-08T00:35:03.203Z,12.6
2022-11-08T00:40:03.074Z,12.7
2022-11-08T00:45:03.470Z,12.7
2022-11-08T00:50:04.897Z,12.7
2022-11-08T00:55:03.437Z,12.8
2022-11-08T01:00:02.860Z,12.8
2022-11-08T01:05:03.747Z,12.8
2022-11-08T01:10:02.992Z,12.8
2022-11-08T01:15:03.268Z,12.9
2022-11-08T01:20:03.314Z,12.9
2022-11-08T01:25:03.375Z,12.9
2022-11-08T01:30:03.749Z,12.9
2022-11-08T01:35:04.705Z,12.9
2022-11-08T01:40:02.747Z,12.9
2022-11-08T01:45:03.044Z,12.9
2022-11-08T01:50:03.115Z,12.9
2022-11-08T01:55:03.200Z,12.8
2022-11-08T02:00:03.526Z,12.8
2022-11-08T02:05:03.533Z,12.8
2022-11-08T02:10:02.711Z,12.7
2022-11-08T02:15:02.942Z,12.7
2022-11-08T02:20:02.920Z,12.7
2022-11-08T02:25:03.110Z,12.8
2022-11-08T02:30:03.423Z,12.6
2022-11-08T02:35:03.316Z,12.6
2022-11-08T02:40:03.878Z,12.6
2022-11-08T02:45:02.812Z,12.5
2022-11-08T02:50:02.798Z,12.5
2022-11-08T02:55:02.931Z,12.4
2022-11-08T03:00:03.278Z,12.4
2022-11-08T03:05:03.578Z,12.4
2022-11-08T03:10:03.388Z,12.3
2022-11-08T03:15:03.698Z,12.3
2022-11-08T03:20:02.695Z,12.2
2022-11-08T03:25:02.797Z,12.2
2022-11-08T03:30:03.131Z,12.2
2022-11-08T03:35:03.050Z,12.1
2022-11-08T03:40:03.267Z,12.1
2022-11-08T03:45:03.470Z,12
2022-11-08T03:50:03.474Z,12
2022-11-08T03:55:05.239Z,12
2022-11-08T04:00:04.922Z,11.9
2022-11-08T04:05:05.300Z,11.9
2022-11-08T04:10:05.521Z,11.9
2022-11-08T04:15:04.870Z,11.9
2022-11-08T04:20:04.808Z,11.9
2022-11-08T04:25:04.628Z,11.9
2022-11-08T04:30:04.742Z,11.9
2022-11-08T04:35:04.056Z,11.9
2022-11-08T04:40:04.138Z,11.9
2022-11-08T04:45:04.974Z,11.8
2022-11-08T04:50:04.585Z,11.8
2022-11-08T04:55:03.706Z,11.7
2022-11-08T05:00:03.661Z,11.6
2022-11-08T05:05:02.654Z,11.5
2022-11-08T05:10:03.024Z,11.5
2022-11-08T05:15:03.254Z,11.4
2022-11-08T05:20:03.112Z,11.4
2022-11-08T05:25:04.428Z,11.3
2022-11-08T05:30:02.871Z,11.3
2022-11-08T05:35:02.740Z,11.3
2022-11-08T05:40:02.918Z,11.2
2022-11-08T05:45:08.204Z,11.2
2022-11-08T05:50:03.158Z,11.2
2022-11-08T05:55:03.292Z,11.2
2022-11-08T06:00:03.647Z,11.1
2022-11-08T06:05:05.691Z,11
2022-11-08T06:10:02.695Z,11
2022-11-08T06:15:03.189Z,11
2022-11-08T06:20:03.050Z,11
2022-11-08T06:25:03.170Z,11
2022-11-08T06:30:03.525Z,11
2022-11-08T06:35:03.541Z,11
2022-11-08T06:40:02.682Z,11
2022-11-08T06:45:03.529Z,11
2022-11-08T06:50:03.592Z,11
2022-11-08T06:55:03.173Z,11
2022-11-08T07:00:03.842Z,11
2022-11-08T07:05:03.436Z,11
2022-11-08T07:10:04.406Z,11
2022-11-08T07:15:03.666Z,11
2022-11-08T07:20:02.838Z,11.1
2022-11-08T07:25:02.993Z,11.1
2022-11-08T07:30:07.946Z,11.1
2022-11-08T07:35:03.327Z,11.2
2022-11-08T07:40:04.163Z,11.2
2022-11-08T07:45:02.969Z,11.3
